createdAt,value
2017-09-20T00:00:25.204Z,9.60
2017-09-20T00:02:52.730Z,9.60
2017-09-20T00:05:21.031Z,9.60
2017-09-20T00:07:48.586Z,9.60
2017-09-20T00:10:16.129Z,9.60
2017-09-20T00:12:44.446Z,9.60
2017-09-20T00:15:11.976Z,9.60
2017-09-20T00:17:39.517Z,9.50
2017-09-20T00:20:07.804Z,9.40
2017-09-20T00:22:35.378Z,9.40
2017-09-20T00:25:02.902Z,9.40
2017-09-20T00:27:31.198Z,9.40
2017-09-20T00:29:59.607Z,9.40
2017-09-20T00:32:27.137Z,9.40
2017-09-20T00:34:55.480Z,9.30
2017-09-20T00:37:23.001Z,9.30
2017-09-20T00:39:50.668Z,9.30
2017-09-20T00:42:18.189Z,9.30
2017-09-20T00:44:46.496Z,9.30
2017-09-20T00:47:14.040Z,9.30
2017-09-20T00:49:41.569Z,9.40
2017-09-20T00:52:09.112Z,9.30
2017-09-20T00:54:36.653Z,9.40
2017-09-20T00:57:04.199Z,9.40
2017-09-20T00:59:31.738Z,9.40
2017-09-20T01:01:59.289Z,9.40
2017-09-20T01:04:27.699Z,9.40
2017-09-20T01:06:55.264Z,9.40
2017-09-20T01:09:22.816Z,9.40
2017-09-20T01:11:50.366Z,9.30
2017-09-20T01:14:17.937Z,9.40
2017-09-20T01:16:45.496Z,9.30
2017-09-20T01:19:13.050Z,9.40
2017-09-20T01:21:52.512Z,9.30
2017-09-20T01:24:20.077Z,9.30
2017-09-20T01:26:47.613Z,9.30
2017-09-20T01:29:15.156Z,9.30
2017-09-20T01:31:42.706Z,9.30
2017-09-20T01:34:11.118Z,9.30
2017-09-20T01:36:38.663Z,9.30
2017-09-20T01:39:06.233Z,9.40
2017-09-20T01:41:33.780Z,9.30
2017-09-20T01:44:01.330Z,9.30
2017-09-20T01:46:28.853Z,9.40
2017-09-20T01:48:57.167Z,9.20
2017-09-20T01:51:24.698Z,9.30
2017-09-20T01:53:52.254Z,9.30
2017-09-20T01:56:19.797Z,9.30
2017-09-20T01:58:47.429Z,9.30
2017-09-20T02:01:14.969Z,9.30
2017-09-20T02:03:42.550Z,9.30
2017-09-20T02:06:10.109Z,9.40
2017-09-20T02:08:37.638Z,9.40
2017-09-20T02:11:05.937Z,9.40
2017-09-20T02:13:33.508Z,9.40
2017-09-20T02:16:01.048Z,9.50
2017-09-20T02:18:29.370Z,9.40
2017-09-20T02:20:56.886Z,9.40
2017-09-20T02:23:25.177Z,9.40
2017-09-20T02:25:52.721Z,9.40
2017-09-20T02:28:20.290Z,9.40
2017-09-20T02:30:47.817Z,9.40
2017-09-20T02:33:15.341Z,9.30
2017-09-20T02:35:42.897Z,9.40
2017-09-20T02:38:10.451Z,9.40
2017-09-20T02:40:37.993Z,9.40
2017-09-20T02:43:05.579Z,9.30
2017-09-20T02:45:33.119Z,9.20
2017-09-20T02:48:00.673Z,9.30
2017-09-20T02:50:28.211Z,9.20
2017-09-20T02:52:56.541Z,9.20
2017-09-20T02:55:24.073Z,9.10
2017-09-20T02:57:51.625Z,9.10
2017-09-20T03:00:19.177Z,9.00
2017-09-20T03:02:47.465Z,8.90
2017-09-20T03:05:15.011Z,8.80
2017-09-20T03:07:42.603Z,8.90
2017-09-20T03:10:10.150Z,8.90
2017-09-20T03:12:37.686Z,9.00
2017-09-20T03:15:05.999Z,9.00
2017-09-20T03:17:33.524Z,9.00
2017-09-20T03:20:01.813Z,9.30
2017-09-20T03:22:29.371Z,9.30
2017-09-20T03:24:57.030Z,9.40
2017-09-20T03:27:24.570Z,9.40
2017-09-20T03:29:52.861Z,9.50
2017-09-20T03:32:21.195Z,9.40
2017-09-20T03:34:48.721Z,9.40
2017-09-20T03:37:16.283Z,9.40
2017-09-20T03:39:43.808Z,9.50
2017-09-20T03:42:12.113Z,9.40
2017-09-20T03:44:39.677Z,9.40
2017-09-20T03:47:07.205Z,9.40
2017-09-20T03:49:35.523Z,9.40
2017-09-20T03:52:03.809Z,9.40
2017-09-20T03:54:32.121Z,9.40
2017-09-20T03:56:59.643Z,9.30
2017-09-20T03:59:27.937Z,9.40
2017-09-20T04:01:55.495Z,9.30
2017-09-20T04:04:23.034Z,9.40
2017-09-20T04:06:51.341Z,9.30
2017-09-20T04:09:18.865Z,9.30
2017-09-20T04:11:47.193Z,9.40
2017-09-20T04:14:14.724Z,9.40
2017-09-20T04:16:43.016Z,9.40
2017-09-20T04:19:10.585Z,9.30
2017-09-20T04:21:38.121Z,9.30
2017-09-20T04:24:05.687Z,9.30
2017-09-20T04:26:33.221Z,9.30
2017-09-20T04:29:01.530Z,9.30
2017-09-20T04:31:29.057Z,9.30
2017-09-20T04:33:57.377Z,9.30
2017-09-20T04:36:24.898Z,9.20
2017-09-20T04:38:53.201Z,9.30
2017-09-20T04:41:20.764Z,9.30
2017-09-20T04:43:48.338Z,9.40
2017-09-20T04:46:15.872Z,9.40
2017-09-20T04:48:43.421Z,9.50
2017-09-20T04:51:11.710Z,9.60
2017-09-20T04:53:39.267Z,9.60
2017-09-20T04:56:06.824Z,9.40
2017-09-20T04:58:35.115Z,9.50
2017-09-20T05:01:02.661Z,9.50
2017-09-20T05:03:30.973Z,9.50
2017-09-20T05:05:58.530Z,9.50
2017-09-20T05:08:26.101Z,9.50
2017-09-20T05:10:53.625Z,9.50
2017-09-20T05:13:21.177Z,9.40
2017-09-20T05:15:48.749Z,9.50
2017-09-20T05:18:16.300Z,9.40
2017-09-20T05:20:44.603Z,9.50
2017-09-20T05:23:12.162Z,9.50
2017-09-20T05:25:39.680Z,9.50
2017-09-20T05:28:08.430Z,9.50
2017-09-20T05:30:35.955Z,9.50
2017-09-20T05:33:03.492Z,9.50
2017-09-20T05:35:31.813Z,9.60
2017-09-20T05:37:59.354Z,9.60
2017-09-20T05:40:26.912Z,9.60
2017-09-20T05:42:54.445Z,9.50
2017-09-20T05:45:22.764Z,9.50
2017-09-20T05:47:50.303Z,9.40
2017-09-20T05:50:17.876Z,9.50
2017-09-20T05:52:45.425Z,9.60
2017-09-20T05:55:12.962Z,9.60
2017-09-20T05:57:41.250Z,9.70
2017-09-20T06:00:08.797Z,9.70
2017-09-20T06:02:37.098Z,9.70
2017-09-20T06:05:04.650Z,9.70
2017-09-20T06:07:32.181Z,9.60
2017-09-20T06:10:00.477Z,9.70
2017-09-20T06:12:28.796Z,9.70
2017-09-20T06:14:56.333Z,9.70
2017-09-20T06:17:23.872Z,9.80
2017-09-20T06:19:52.170Z,9.80
2017-09-20T06:22:19.713Z,9.80
2017-09-20T06:24:48.005Z,10.00
2017-09-20T06:27:15.538Z,10.00
2017-09-20T06:29:45.578Z,10.10
2017-09-20T06:32:13.124Z,10.10
2017-09-20T06:34:41.445Z,10.30
2017-09-20T06:37:08.970Z,10.20
2017-09-20T06:39:36.538Z,10.30
2017-09-20T06:42:04.061Z,10.40
2017-09-20T06:44:32.389Z,11.00
2017-09-20T06:46:59.954Z,11.00
2017-09-20T06:49:27.517Z,11.00
2017-09-20T06:51:55.072Z,11.00
2017-09-20T06:54:22.598Z,11.00
2017-09-20T06:56:51.671Z,11.00
2017-09-20T06:59:19.209Z,11.00
2017-09-20T07:01:46.757Z,11.00
2017-09-20T07:04:14.301Z,11.10
2017-09-20T07:06:41.828Z,11.10
2017-09-20T07:09:09.381Z,11.10
2017-09-20T07:11:37.669Z,11.30
2017-09-20T07:14:05.225Z,11.20
2017-09-20T07:16:33.515Z,11.30
2017-09-20T07:19:01.065Z,11.20
2017-09-20T07:21:28.594Z,11.30
2017-09-20T07:23:57.636Z,11.70
2017-09-20T07:26:25.192Z,11.70
2017-09-20T07:28:52.754Z,11.80
2017-09-20T07:31:20.286Z,12.00
2017-09-20T07:33:48.614Z,12.20
2017-09-20T07:36:16.226Z,12.10
2017-09-20T07:38:44.521Z,12.40
2017-09-20T07:41:12.091Z,12.30
2017-09-20T07:43:39.632Z,12.80
2017-09-20T07:46:07.198Z,12.90
2017-09-20T07:48:34.728Z,13.10
2017-09-20T07:51:03.037Z,13.50
2017-09-20T07:53:30.593Z,13.50
2017-09-20T07:55:58.138Z,13.70
2017-09-20T07:58:26.469Z,16.30
2017-09-20T08:00:53.997Z,16.30
2017-09-20T08:03:21.544Z,18.40
2017-09-20T08:05:49.109Z,19.70
2017-09-20T08:08:17.401Z,21.40
2017-09-20T08:10:44.961Z,21.30
2017-09-20T08:13:12.493Z,20.60
2017-09-20T08:15:40.912Z,19.70
2017-09-20T08:18:08.457Z,19.60
2017-09-20T08:20:36.028Z,20.90
2017-09-20T08:23:03.565Z,22.00
2017-09-20T08:25:31.849Z,20.90
2017-09-20T08:27:59.393Z,20.90
2017-09-20T08:30:27.688Z,22.90
2017-09-20T08:32:55.233Z,22.80
2017-09-20T08:35:23.538Z,23.50
2017-09-20T08:37:51.089Z,23.40
2017-09-20T08:40:18.641Z,23.50
2017-09-20T08:42:46.201Z,23.00
2017-09-20T08:45:13.736Z,21.80
2017-09-20T08:47:42.057Z,19.90
2017-09-20T08:50:09.585Z,19.90
2017-09-20T08:52:37.141Z,19.70
2017-09-20T08:55:04.716Z,19.90
2017-09-20T08:57:32.239Z,20.00
2017-09-20T09:00:00.551Z,19.80
2017-09-20T09:02:28.074Z,19.80
2017-09-20T09:04:56.387Z,22.60
2017-09-20T09:07:23.948Z,22.60
2017-09-20T09:09:51.498Z,23.70
2017-09-20T09:12:19.032Z,24.20
2017-09-20T09:14:47.343Z,25.70
2017-09-20T09:17:14.866Z,25.60
2017-09-20T09:19:43.162Z,23.70
2017-09-20T09:22:10.741Z,23.60
2017-09-20T09:24:38.277Z,23.30
2017-09-20T09:27:06.605Z,22.70
2017-09-20T09:29:34.135Z,22.70
2017-09-20T09:32:01.671Z,24.10
2017-09-20T09:34:29.217Z,25.20
2017-09-20T09:36:57.512Z,22.90
2017-09-20T09:39:25.098Z,22.90
2017-09-20T09:41:52.636Z,23.20
2017-09-20T09:44:20.190Z,24.50
2017-09-20T09:46:47.737Z,23.70
2017-09-20T09:49:16.064Z,24.20
2017-09-20T09:51:43.613Z,24.10
2017-09-20T09:54:11.159Z,24.20
2017-09-20T09:56:38.719Z,26.00
2017-09-20T09:59:06.277Z,25.60
2017-09-20T10:01:33.809Z,25.20
2017-09-20T10:04:02.127Z,23.40
2017-09-20T10:06:29.674Z,23.30
2017-09-20T10:08:57.205Z,22.50
2017-09-20T10:11:25.539Z,24.30
2017-09-20T10:13:53.081Z,24.30
2017-09-20T10:16:20.613Z,26.20
2017-09-20T10:18:48.928Z,25.80
2017-09-20T10:21:16.597Z,25.80
2017-09-20T10:23:44.150Z,25.30
2017-09-20T10:26:11.713Z,24.70
2017-09-20T10:28:39.238Z,23.10
2017-09-20T10:31:06.790Z,23.10
2017-09-20T10:33:34.335Z,22.40
2017-09-20T10:36:02.653Z,20.70
2017-09-20T10:38:30.195Z,20.70
2017-09-20T10:40:57.718Z,20.40
2017-09-20T10:43:26.759Z,19.20
2017-09-20T10:45:54.302Z,19.20
2017-09-20T10:48:21.839Z,18.70
2017-09-20T10:50:50.150Z,17.50
2017-09-20T10:53:17.708Z,17.40
2017-09-20T10:55:45.259Z,17.10
2017-09-20T10:58:13.550Z,16.50
2017-09-20T11:00:41.105Z,16.50
2017-09-20T11:03:08.666Z,16.30
2017-09-20T11:05:36.191Z,16.40
2017-09-20T11:08:03.752Z,16.50
2017-09-20T11:10:31.309Z,16.70
2017-09-20T11:12:59.659Z,17.10
2017-09-20T11:15:27.208Z,17.10
2017-09-20T11:17:54.742Z,17.70
2017-09-20T11:20:22.322Z,18.10
2017-09-20T11:22:49.856Z,17.80
2017-09-20T11:25:17.395Z,17.40
2017-09-20T11:27:44.954Z,17.30
2017-09-20T11:30:12.490Z,17.10
2017-09-20T11:32:40.917Z,17.40
2017-09-20T11:35:08.452Z,17.40
2017-09-20T11:37:36.001Z,17.30
2017-09-20T11:40:04.345Z,17.20
2017-09-20T11:42:31.881Z,17.20
2017-09-20T11:44:59.435Z,17.30
2017-09-20T11:47:26.975Z,17.20
2017-09-20T11:49:54.534Z,17.20
2017-09-20T11:52:22.075Z,17.50
2017-09-20T11:54:50.399Z,19.20
2017-09-20T11:57:17.953Z,19.20
2017-09-20T11:59:45.477Z,19.50
2017-09-20T12:02:13.798Z,18.40
2017-09-20T12:04:41.385Z,18.40
2017-09-20T12:07:09.011Z,17.90
2017-09-20T12:09:36.571Z,17.80
2017-09-20T12:12:04.140Z,17.60
2017-09-20T12:14:31.668Z,17.80
2017-09-20T12:16:59.200Z,17.70
2017-09-20T12:19:27.529Z,18.20
2017-09-20T12:21:55.087Z,18.20
2017-09-20T12:24:22.648Z,18.40
2017-09-20T12:26:51.063Z,18.30
2017-09-20T12:29:18.598Z,18.30
2017-09-20T12:31:46.170Z,18.20
2017-09-20T12:34:13.710Z,18.40
2017-09-20T12:36:41.244Z,18.70
2017-09-20T12:39:08.789Z,18.70
2017-09-20T12:41:36.426Z,18.30
2017-09-20T12:44:04.741Z,18.10
2017-09-20T12:46:32.290Z,18.00
2017-09-20T12:48:59.848Z,17.90
2017-09-20T12:51:27.413Z,18.10
2017-09-20T12:53:54.958Z,18.20
2017-09-20T12:56:23.290Z,17.90
2017-09-20T12:58:50.829Z,17.90
2017-09-20T13:01:18.498Z,17.70
2017-09-20T13:03:46.030Z,17.50
2017-09-20T13:06:13.584Z,17.30
2017-09-20T13:08:41.896Z,17.10
2017-09-20T13:11:10.205Z,17.30
2017-09-20T13:13:37.772Z,17.30
2017-09-20T13:16:05.321Z,17.00
2017-09-20T13:18:32.882Z,16.70
2017-09-20T13:21:00.427Z,16.50
2017-09-20T13:23:27.973Z,16.40
2017-09-20T13:25:56.301Z,16.30
2017-09-20T13:28:23.848Z,16.40
2017-09-20T13:30:51.432Z,16.20
2017-09-20T13:33:18.981Z,16.10
2017-09-20T13:35:46.540Z,16.20
2017-09-20T13:38:14.069Z,16.30
2017-09-20T13:40:41.609Z,16.30
2017-09-20T13:43:09.906Z,16.70
2017-09-20T13:45:37.463Z,16.60
2017-09-20T13:48:04.989Z,16.60
2017-09-20T13:50:32.538Z,17.00
2017-09-20T13:53:00.076Z,17.30
2017-09-20T13:55:27.619Z,17.70
2017-09-20T13:57:55.182Z,17.90
2017-09-20T14:00:22.718Z,18.50
2017-09-20T14:02:50.274Z,18.40
2017-09-20T14:05:18.570Z,18.30
2017-09-20T14:07:46.129Z,18.30
2017-09-20T14:10:13.669Z,18.10
2017-09-20T14:12:43.177Z,17.80
2017-09-20T14:15:10.705Z,17.70
2017-09-20T14:17:38.233Z,17.70
2017-09-20T14:20:05.784Z,17.50
2017-09-20T14:22:33.314Z,17.60
2017-09-20T14:25:01.728Z,17.70
2017-09-20T14:27:29.266Z,17.80
2017-09-20T14:29:56.809Z,18.00
2017-09-20T14:32:24.350Z,17.80
2017-09-20T14:34:52.677Z,17.10
2017-09-20T14:37:20.233Z,17.10
2017-09-20T14:39:47.770Z,16.50
2017-09-20T14:42:15.333Z,16.30
2017-09-20T14:44:42.870Z,16.10
2017-09-20T14:47:11.185Z,15.90
2017-09-20T14:49:38.727Z,15.90
2017-09-20T14:52:06.311Z,15.90
2017-09-20T14:54:33.848Z,15.70
2017-09-20T14:57:01.439Z,15.60
2017-09-20T14:59:28.992Z,15.50
2017-09-20T15:01:56.537Z,15.40
2017-09-20T15:04:24.073Z,15.30
2017-09-20T15:06:51.622Z,15.10
2017-09-20T15:09:19.164Z,14.90
2017-09-20T15:11:47.497Z,14.20
2017-09-20T15:14:15.058Z,14.10
2017-09-20T15:16:42.628Z,14.00
2017-09-20T15:19:10.193Z,13.90
2017-09-20T15:21:37.748Z,13.80
2017-09-20T15:24:05.320Z,14.00
2017-09-20T15:26:32.852Z,14.00
2017-09-20T15:29:01.174Z,13.80
2017-09-20T15:31:28.941Z,13.70
2017-09-20T15:33:56.497Z,13.60
2017-09-20T15:36:24.036Z,13.40
2017-09-20T15:38:51.601Z,13.30
2017-09-20T15:41:19.175Z,13.20
2017-09-20T15:43:46.705Z,13.00
2017-09-20T15:46:14.249Z,13.00
2017-09-20T15:48:42.569Z,13.00
2017-09-20T15:51:10.127Z,13.00
2017-09-20T15:53:37.686Z,13.00
2017-09-20T15:56:05.230Z,13.10
2017-09-20T15:58:32.783Z,13.20
2017-09-20T16:01:00.321Z,13.30
2017-09-20T16:03:28.653Z,13.10
2017-09-20T16:05:56.189Z,13.00
2017-09-20T16:08:23.725Z,13.00
2017-09-20T16:10:52.049Z,12.70
2017-09-20T16:13:19.582Z,12.70
2017-09-20T16:15:47.114Z,12.60
2017-09-20T16:18:15.437Z,12.50
2017-09-20T16:20:42.970Z,12.50
2017-09-20T16:23:10.510Z,12.50
2017-09-20T16:25:38.837Z,12.50
2017-09-20T16:28:06.369Z,12.50
2017-09-20T16:30:33.955Z,12.50
2017-09-20T16:33:01.537Z,12.50
2017-09-20T16:35:29.077Z,12.50
2017-09-20T16:37:56.664Z,12.50
2017-09-20T16:40:24.205Z,12.60
2017-09-20T16:42:51.741Z,12.60
2017-09-20T16:45:19.298Z,12.70
2017-09-20T16:47:46.868Z,12.70
2017-09-20T16:50:14.396Z,12.80
2017-09-20T16:52:42.701Z,12.80
2017-09-20T16:55:10.252Z,12.80
2017-09-20T16:57:37.781Z,12.80
2017-09-20T17:00:06.110Z,12.60
2017-09-20T17:02:33.654Z,12.60
2017-09-20T17:05:01.215Z,12.60
2017-09-20T17:07:28.768Z,12.60
2017-09-20T17:09:56.446Z,12.60
2017-09-20T17:12:24.003Z,12.80
2017-09-20T17:14:51.586Z,12.80
2017-09-20T17:17:19.125Z,12.80
2017-09-20T17:19:46.673Z,12.80
2017-09-20T17:22:14.242Z,12.90
2017-09-20T17:24:41.773Z,12.90
2017-09-20T17:27:09.333Z,12.70
2017-09-20T17:29:36.888Z,12.50
2017-09-20T17:32:05.199Z,12.40
2017-09-20T17:34:32.776Z,12.30
2017-09-20T17:37:00.329Z,12.20
2017-09-20T17:39:27.900Z,12.00
2017-09-20T17:41:55.445Z,12.00
2017-09-20T17:44:22.999Z,11.90
2017-09-20T17:46:50.533Z,11.90
2017-09-20T17:49:18.077Z,11.80
2017-09-20T17:51:46.390Z,11.50
2017-09-20T17:54:13.957Z,11.50
2017-09-20T17:56:41.498Z,11.40
2017-09-20T17:59:09.057Z,11.30
2017-09-20T18:01:36.597Z,11.20
2017-09-20T18:04:05.041Z,11.00
2017-09-20T18:06:32.619Z,10.90
2017-09-20T18:09:00.151Z,10.90
2017-09-20T18:11:27.720Z,10.80
2017-09-20T18:13:55.258Z,10.70
2017-09-20T18:16:22.824Z,10.70
2017-09-20T18:18:50.361Z,10.50
2017-09-20T18:21:17.913Z,10.40
2017-09-20T18:23:45.479Z,10.30
2017-09-20T18:26:13.009Z,10.30
2017-09-20T18:28:41.451Z,10.20
2017-09-20T18:31:08.993Z,10.10
2017-09-20T18:33:36.546Z,10.20
2017-09-20T18:36:04.076Z,10.10
2017-09-20T18:38:32.393Z,10.00
2017-09-20T18:40:59.941Z,10.00
2017-09-20T18:43:27.492Z,10.00
2017-09-20T18:45:55.025Z,10.00
2017-09-20T18:48:23.354Z,9.90
2017-09-20T18:50:50.885Z,9.90
2017-09-20T18:53:18.433Z,9.90
2017-09-20T18:55:46.767Z,9.80
2017-09-20T18:58:14.323Z,9.70
2017-09-20T19:00:41.866Z,9.70
2017-09-20T19:03:09.438Z,9.60
2017-09-20T19:05:36.991Z,9.60
2017-09-20T19:08:04.517Z,9.60
2017-09-20T19:10:32.089Z,9.50
2017-09-20T19:12:59.625Z,9.50
2017-09-20T19:15:27.956Z,9.50
2017-09-20T19:17:55.515Z,9.50
2017-09-20T19:20:23.164Z,9.50
2017-09-20T19:22:50.720Z,9.50
2017-09-20T19:25:18.246Z,9.40
2017-09-20T19:27:46.565Z,9.20
2017-09-20T19:30:14.116Z,9.20
2017-09-20T19:32:41.651Z,9.20
2017-09-20T19:35:09.957Z,9.20
2017-09-20T19:37:37.507Z,9.20
2017-09-20T19:40:05.098Z,9.10
2017-09-20T19:42:32.661Z,9.00
2017-09-20T19:45:00.198Z,9.00
2017-09-20T19:47:27.753Z,8.90
2017-09-20T19:49:55.313Z,8.90
2017-09-20T19:52:22.853Z,8.90
2017-09-20T19:54:50.426Z,8.90
2017-09-20T19:57:17.944Z,8.80
2017-09-20T19:59:45.478Z,8.80
2017-09-20T20:02:13.106Z,8.70
2017-09-20T20:04:40.637Z,8.60
2017-09-20T20:07:08.959Z,8.50
2017-09-20T20:09:36.492Z,8.50
2017-09-20T20:12:04.040Z,8.50
2017-09-20T20:14:32.339Z,8.50
2017-09-20T20:16:59.885Z,8.50
2017-09-20T20:19:27.437Z,8.50
2017-09-20T20:21:55.753Z,8.50
2017-09-20T20:24:23.410Z,8.50
2017-09-20T20:26:50.955Z,8.50
2017-09-20T20:29:18.509Z,8.40
2017-09-20T20:31:46.050Z,8.30
2017-09-20T20:34:14.365Z,8.30
2017-09-20T20:36:42.939Z,8.30
2017-09-20T20:39:10.468Z,8.20
2017-09-20T20:41:38.786Z,8.20
2017-09-20T20:44:06.313Z,8.20
2017-09-20T20:46:34.629Z,8.10
2017-09-20T20:49:02.164Z,8.10
2017-09-20T20:51:29.732Z,8.00
2017-09-20T20:53:57.270Z,7.90
2017-09-20T20:56:25.596Z,8.00
2017-09-20T20:58:53.133Z,7.90
2017-09-20T21:01:20.677Z,7.90
2017-09-20T21:03:48.225Z,7.90
2017-09-20T21:06:16.552Z,7.90
2017-09-20T21:08:44.088Z,7.80
2017-09-20T21:11:11.662Z,7.90
2017-09-20T21:13:39.195Z,7.80
2017-09-20T21:16:06.730Z,7.80
2017-09-20T21:18:35.034Z,7.70
2017-09-20T21:21:02.557Z,7.70
2017-09-20T21:23:30.103Z,7.70
2017-09-20T21:25:57.654Z,7.60
2017-09-20T21:28:25.201Z,7.60
2017-09-20T21:30:52.751Z,7.60
2017-09-20T21:33:20.283Z,7.60
2017-09-20T21:35:47.849Z,7.60
2017-09-20T21:38:15.373Z,7.50
2017-09-20T21:40:43.685Z,7.40
2017-09-20T21:43:11.219Z,7.40
2017-09-20T21:45:39.510Z,7.40
2017-09-20T21:48:07.078Z,7.30
2017-09-20T21:50:34.621Z,7.30
2017-09-20T21:53:02.939Z,7.20
2017-09-20T21:55:30.473Z,7.20
2017-09-20T21:57:58.009Z,7.20
2017-09-20T22:00:26.341Z,7.20
2017-09-20T22:02:53.915Z,7.20
2017-09-20T22:05:21.450Z,7.20
2017-09-20T22:07:48.982Z,7.10
2017-09-20T22:10:16.542Z,7.10
2017-09-20T22:12:44.833Z,7.10
2017-09-20T22:15:24.221Z,7.10
2017-09-20T22:18:03.581Z,7.10
2017-09-20T22:20:43.753Z,7.10
2017-09-20T22:23:23.045Z,7.10
2017-09-20T22:26:02.597Z,7.10
2017-09-20T22:28:30.129Z,7.10
2017-09-20T22:30:57.663Z,7.00
2017-09-20T22:33:25.206Z,7.00
2017-09-20T22:35:52.758Z,6.90
2017-09-20T22:38:21.086Z,7.00
2017-09-20T22:40:48.625Z,7.00
2017-09-20T22:43:16.189Z,7.00
2017-09-20T22:45:43.721Z,7.00
2017-09-20T22:48:11.287Z,7.00
2017-09-20T22:50:38.838Z,6.90
2017-09-20T22:53:07.142Z,6.90
2017-09-20T22:55:34.712Z,6.90
2017-09-20T22:58:02.277Z,6.80
2017-09-20T23:00:29.834Z,6.80
2017-09-20T23:02:57.379Z,6.80
2017-09-20T23:05:24.922Z,6.80
2017-09-20T23:07:52.477Z,6.80
2017-09-20T23:10:20.013Z,6.80
2017-09-20T23:12:48.333Z,6.80
2017-09-20T23:15:15.870Z,6.70
2017-09-20T23:17:44.188Z,6.60
2017-09-20T23:20:11.719Z,6.60
2017-09-20T23:22:39.268Z,6.60
2017-09-20T23:25:07.555Z,6.50
2017-09-20T23:27:35.086Z,6.60
2017-09-20T23:30:03.408Z,6.60
2017-09-20T23:32:30.938Z,6.60
2017-09-20T23:34:59.276Z,6.50
2017-09-20T23:37:26.833Z,6.50
2017-09-20T23:39:54.383Z,6.50
2017-09-20T23:42:21.910Z,6.50
2017-09-20T23:44:49.470Z,6.40
2017-09-20T23:47:17.018Z,6.40
2017-09-20T23:49:44.565Z,6.30
2017-09-20T23:52:12.878Z,6.40
2017-09-20T23:54:40.409Z,6.40
2017-09-20T23:57:08.739Z,6.40
2017-09-20T23:59:36.271Z,6.40
